Terminal Aerodrome Forecast
Issued by NWS Midland/Odessa, TX

Home | Current Version | Previous Version | Text Only | Print | Product List | Glossary On
Versions: 1 2 3 4 5 6 7 8 9 10 11 12 13 14 15 16 17 18 19 20 21 22 23 24 25 26 27 28 29
000
FTUS44 KMAF 250500
TAFMAF
TAF
KMAF 250523Z 2506/2606 28013G19KT P6SM SKC
     FM250700 26009KT P6SM SKC
     FM251400 28013G20KT P6SM SKC
     FM251700 25019G26KT P6SM SKC=

USA.gov is the U.S. government's official web portal to all federal, state and local government web resources and services.